sensor_id;sensor_type;location;lat;lon;timestamp;P1;durP1;ratioP1;P2;durP2;ratioP2
49820;SDS011;36893;52.520;13.450;2023-05-07T00:01:48;5.03;;;1.47;;
49820;SDS011;36893;52.520;13.450;2023-05-07T00:11:49;5.72;;;1.20;;
49820;SDS011;36893;52.520;13.450;2023-05-07T00:21:50;4.13;;;1.23;;
49820;SDS011;36893;52.520;13.450;2023-05-07T00:31:50;1.40;;;0.80;;
49820;SDS011;36893;52.520;13.450;2023-05-07T00:41:52;3.47;;;1.38;;
49820;SDS011;36893;52.520;13.450;2023-05-07T00:51:52;3.80;;;1.10;;
49820;SDS011;36893;52.520;13.450;2023-05-07T01:01:53;2.43;;;1.30;;
49820;SDS011;36893;52.520;13.450;2023-05-07T01:11:54;2.47;;;1.38;;
49820;SDS011;36893;52.520;13.450;2023-05-07T01:22:01;2.22;;;1.35;;
49820;SDS011;36893;52.520;13.450;2023-05-07T01:32:08;2.53;;;1.30;;
49820;SDS011;36893;52.520;13.450;2023-05-07T01:42:10;3.08;;;1.33;;
49820;SDS011;36893;52.520;13.450;2023-05-07T01:52:12;1.83;;;0.90;;
49820;SDS011;36893;52.520;13.450;2023-05-07T02:02:13;2.45;;;1.02;;
49820;SDS011;36893;52.520;13.450;2023-05-07T02:12:14;3.87;;;1.30;;
49820;SDS011;36893;52.520;13.450;2023-05-07T02:22:14;1.57;;;0.87;;
49820;SDS011;36893;52.520;13.450;2023-05-07T02:32:15;2.35;;;1.30;;
49820;SDS011;36893;52.520;13.450;2023-05-07T02:42:16;2.13;;;1.20;;
49820;SDS011;36893;52.520;13.450;2023-05-07T02:52:17;1.13;;;0.90;;
49820;SDS011;36893;52.520;13.450;2023-05-07T03:02:17;1.53;;;0.77;;
49820;SDS011;36893;52.520;13.450;2023-05-07T03:12:18;3.10;;;1.13;;
49820;SDS011;36893;52.520;13.450;2023-05-07T03:22:19;4.00;;;1.17;;
49820;SDS011;36893;52.520;13.450;2023-05-07T03:32:20;2.30;;;1.38;;
49820;SDS011;36893;52.520;13.450;2023-05-07T03:42:21;3.23;;;1.37;;
49820;SDS011;36893;52.520;13.450;2023-05-07T03:52:21;2.03;;;1.03;;
49820;SDS011;36893;52.520;13.450;2023-05-07T04:02:25;1.50;;;0.85;;
49820;SDS011;36893;52.520;13.450;2023-05-07T04:12:26;1.97;;;0.90;;
49820;SDS011;36893;52.520;13.450;2023-05-07T04:22:26;1.60;;;0.83;;
49820;SDS011;36893;52.520;13.450;2023-05-07T04:32:28;1.50;;;0.90;;
49820;SDS011;36893;52.520;13.450;2023-05-07T04:42:29;1.23;;;0.80;;
49820;SDS011;36893;52.520;13.450;2023-05-07T04:52:31;1.40;;;0.95;;
49820;SDS011;36893;52.520;13.450;2023-05-07T05:02:31;11.50;;;1.53;;
49820;SDS011;36893;52.520;13.450;2023-05-07T05:12:32;1.90;;;0.93;;
49820;SDS011;36893;52.520;13.450;2023-05-07T05:22:33;2.53;;;1.00;;
49820;SDS011;36893;52.520;13.450;2023-05-07T05:32:34;6.80;;;1.42;;
49820;SDS011;36893;52.520;13.450;2023-05-07T05:42:35;2.07;;;1.00;;
49820;SDS011;36893;52.520;13.450;2023-05-07T05:52:36;2.20;;;1.10;;
49820;SDS011;36893;52.520;13.450;2023-05-07T06:02:36;3.70;;;1.73;;
49820;SDS011;36893;52.520;13.450;2023-05-07T06:12:37;4.13;;;1.77;;
49820;SDS011;36893;52.520;13.450;2023-05-07T06:22:38;3.13;;;1.40;;
49820;SDS011;36893;52.520;13.450;2023-05-07T06:32:39;3.63;;;1.50;;
49820;SDS011;36893;52.520;13.450;2023-05-07T06:42:40;3.33;;;1.40;;
49820;SDS011;36893;52.520;13.450;2023-05-07T06:52:41;2.97;;;1.03;;
49820;SDS011;36893;52.520;13.450;2023-05-07T07:02:41;8.07;;;2.00;;
49820;SDS011;36893;52.520;13.450;2023-05-07T07:12:43;39.95;;;17.42;;
49820;SDS011;36893;52.520;13.450;2023-05-07T07:22:43;31.07;;;14.27;;
49820;SDS011;36893;52.520;13.450;2023-05-07T07:32:44;24.57;;;11.30;;
49820;SDS011;36893;52.520;13.450;2023-05-07T07:42:45;24.47;;;10.23;;
49820;SDS011;36893;52.520;13.450;2023-05-07T07:52:46;20.17;;;7.87;;
49820;SDS011;36893;52.520;13.450;2023-05-07T08:02:48;14.65;;;5.15;;
49820;SDS011;36893;52.520;13.450;2023-05-07T08:12:49;3.45;;;1.88;;
49820;SDS011;36893;52.520;13.450;2023-05-07T08:22:50;4.10;;;1.60;;
49820;SDS011;36893;52.520;13.450;2023-05-07T08:32:51;6.25;;;1.40;;
49820;SDS011;36893;52.520;13.450;2023-05-07T08:42:52;2.53;;;1.13;;
49820;SDS011;36893;52.520;13.450;2023-05-07T08:52:53;1.98;;;1.20;;
49820;SDS011;36893;52.520;13.450;2023-05-07T09:02:56;1.05;;;0.95;;
49820;SDS011;36893;52.520;13.450;2023-05-07T09:12:56;1.83;;;0.97;;
49820;SDS011;36893;52.520;13.450;2023-05-07T09:22:57;2.60;;;1.07;;
49820;SDS011;36893;52.520;13.450;2023-05-07T09:32:58;1.57;;;1.10;;
49820;SDS011;36893;52.520;13.450;2023-05-07T09:43:10;2.80;;;1.23;;
49820;SDS011;36893;52.520;13.450;2023-05-07T09:53:11;2.47;;;1.23;;
49820;SDS011;36893;52.520;13.450;2023-05-07T10:03:14;2.33;;;0.80;;
49820;SDS011;36893;52.520;13.450;2023-05-07T10:13:16;1.73;;;0.98;;
49820;SDS011;36893;52.520;13.450;2023-05-07T10:23:19;0.83;;;0.60;;
49820;SDS011;36893;52.520;13.450;2023-05-07T10:33:25;4.30;;;1.10;;
49820;SDS011;36893;52.520;13.450;2023-05-07T10:43:42;2.80;;;0.85;;
49820;SDS011;36893;52.520;13.450;2023-05-07T10:53:44;2.33;;;0.70;;
49820;SDS011;36893;52.520;13.450;2023-05-07T11:04:12;0.97;;;0.50;;
49820;SDS011;36893;52.520;13.450;2023-05-07T11:14:14;1.52;;;0.73;;
49820;SDS011;36893;52.520;13.450;2023-05-07T11:24:41;1.15;;;0.77;;
49820;SDS011;36893;52.520;13.450;2023-05-07T11:34:43;2.67;;;0.95;;
49820;SDS011;36893;52.520;13.450;2023-05-07T11:44:45;1.15;;;0.70;;
49820;SDS011;36893;52.520;13.450;2023-05-07T11:54:53;1.00;;;0.65;;
49820;SDS011;36893;52.520;13.450;2023-05-07T12:05:00;2.05;;;0.80;;
49820;SDS011;36893;52.520;13.450;2023-05-07T12:15:00;1.63;;;0.73;;
49820;SDS011;36893;52.520;13.450;2023-05-07T12:25:01;2.47;;;0.77;;
49820;SDS011;36893;52.520;13.450;2023-05-07T12:35:02;1.30;;;0.55;;
49820;SDS011;36893;52.520;13.450;2023-05-07T13:05:14;3.95;;;0.52;;
49820;SDS011;36893;52.520;13.450;2023-05-07T13:15:15;1.23;;;0.80;;
49820;SDS011;36893;52.520;13.450;2023-05-07T13:25:16;1.08;;;0.80;;
49820;SDS011;36893;52.520;13.450;2023-05-07T13:35:16;0.70;;;0.60;;
49820;SDS011;36893;52.520;13.450;2023-05-07T13:45:22;2.17;;;0.80;;
49820;SDS011;36893;52.520;13.450;2023-05-07T13:55:25;1.37;;;0.60;;
49820;SDS011;36893;52.520;13.450;2023-05-07T14:05:28;2.70;;;0.80;;
49820;SDS011;36893;52.520;13.450;2023-05-07T14:15:29;2.90;;;1.03;;
49820;SDS011;36893;52.520;13.450;2023-05-07T14:25:30;1.03;;;0.70;;
49820;SDS011;36893;52.520;13.450;2023-05-07T14:35:30;0.97;;;0.53;;
49820;SDS011;36893;52.520;13.450;2023-05-07T14:45:31;0.67;;;0.63;;
49820;SDS011;36893;52.520;13.450;2023-05-07T14:55:31;0.87;;;0.70;;
49820;SDS011;36893;52.520;13.450;2023-05-07T15:05:41;1.15;;;0.60;;
49820;SDS011;36893;52.520;13.450;2023-05-07T15:15:42;2.20;;;0.80;;
49820;SDS011;36893;52.520;13.450;2023-05-07T15:25:44;1.40;;;0.75;;
49820;SDS011;36893;52.520;13.450;2023-05-07T15:35:45;0.97;;;0.70;;
49820;SDS011;36893;52.520;13.450;2023-05-07T15:45:45;0.60;;;0.50;;
49820;SDS011;36893;52.520;13.450;2023-05-07T15:55:47;1.10;;;0.73;;
49820;SDS011;36893;52.520;13.450;2023-05-07T16:05:48;3.67;;;0.98;;
49820;SDS011;36893;52.520;13.450;2023-05-07T16:15:49;2.63;;;0.73;;
49820;SDS011;36893;52.520;13.450;2023-05-07T16:25:55;2.80;;;1.00;;
49820;SDS011;36893;52.520;13.450;2023-05-07T16:35:55;1.13;;;0.83;;
49820;SDS011;36893;52.520;13.450;2023-05-07T16:45:57;1.65;;;1.10;;
49820;SDS011;36893;52.520;13.450;2023-05-07T16:55:58;1.10;;;0.90;;
49820;SDS011;36893;52.520;13.450;2023-05-07T17:06:03;2.47;;;1.38;;
49820;SDS011;36893;52.520;13.450;2023-05-07T17:16:04;1.73;;;0.87;;
49820;SDS011;36893;52.520;13.450;2023-05-07T17:26:10;3.22;;;1.55;;
49820;SDS011;36893;52.520;13.450;2023-05-07T17:36:14;2.00;;;1.20;;
49820;SDS011;36893;52.520;13.450;2023-05-07T17:46:14;3.30;;;1.20;;
49820;SDS011;36893;52.520;13.450;2023-05-07T17:56:15;5.47;;;1.52;;
49820;SDS011;36893;52.520;13.450;2023-05-07T18:06:16;4.30;;;1.63;;
49820;SDS011;36893;52.520;13.450;2023-05-07T18:16:18;4.18;;;1.70;;
49820;SDS011;36893;52.520;13.450;2023-05-07T18:26:18;2.58;;;1.52;;
49820;SDS011;36893;52.520;13.450;2023-05-07T18:36:20;2.58;;;1.27;;
49820;SDS011;36893;52.520;13.450;2023-05-07T18:56:24;3.28;;;1.40;;
49820;SDS011;36893;52.520;13.450;2023-05-07T19:06:25;2.10;;;0.97;;
49820;SDS011;36893;52.520;13.450;2023-05-07T19:16:25;4.10;;;1.30;;
49820;SDS011;36893;52.520;13.450;2023-05-07T19:26:26;2.30;;;1.20;;
49820;SDS011;36893;52.520;13.450;2023-05-07T19:36:27;2.67;;;1.10;;
49820;SDS011;36893;52.520;13.450;2023-05-07T19:46:28;2.55;;;1.00;;
49820;SDS011;36893;52.520;13.450;2023-05-07T19:56:28;3.40;;;1.27;;
49820;SDS011;36893;52.520;13.450;2023-05-07T20:06:31;5.37;;;1.77;;
49820;SDS011;36893;52.520;13.450;2023-05-07T20:16:32;1.47;;;1.00;;
49820;SDS011;36893;52.520;13.450;2023-05-07T20:26:33;1.47;;;1.20;;
49820;SDS011;36893;52.520;13.450;2023-05-07T20:36:33;2.47;;;1.30;;
49820;SDS011;36893;52.520;13.450;2023-05-07T20:46:35;0.82;;;0.60;;
49820;SDS011;36893;52.520;13.450;2023-05-07T20:56:37;0.60;;;0.47;;
49820;SDS011;36893;52.520;13.450;2023-05-07T21:06:37;1.50;;;0.87;;
49820;SDS011;36893;52.520;13.450;2023-05-07T21:16:39;3.60;;;1.10;;
49820;SDS011;36893;52.520;13.450;2023-05-07T21:26:41;0.82;;;0.52;;
49820;SDS011;36893;52.520;13.450;2023-05-07T21:36:42;3.20;;;0.83;;
49820;SDS011;36893;52.520;13.450;2023-05-07T21:46:42;1.17;;;0.60;;
49820;SDS011;36893;52.520;13.450;2023-05-07T21:56:43;0.98;;;0.43;;
49820;SDS011;36893;52.520;13.450;2023-05-07T22:06:44;3.03;;;1.00;;
49820;SDS011;36893;52.520;13.450;2023-05-07T22:16:45;3.90;;;1.00;;
49820;SDS011;36893;52.520;13.450;2023-05-07T22:26:45;1.07;;;0.57;;
49820;SDS011;36893;52.520;13.450;2023-05-07T22:36:47;0.70;;;0.50;;
49820;SDS011;36893;52.520;13.450;2023-05-07T22:46:48;1.43;;;0.70;;
49820;SDS011;36893;52.520;13.450;2023-05-07T22:56:48;1.70;;;0.63;;
49820;SDS011;36893;52.520;13.450;2023-05-07T23:06:49;2.90;;;1.03;;
49820;SDS011;36893;52.520;13.450;2023-05-07T23:16:50;1.20;;;0.80;;
49820;SDS011;36893;52.520;13.450;2023-05-07T23:26:50;2.27;;;0.70;;
49820;SDS011;36893;52.520;13.450;2023-05-07T23:36:51;0.93;;;0.83;;
49820;SDS011;36893;52.520;13.450;2023-05-07T23:46:52;1.65;;;0.80;;
49820;SDS011;36893;52.520;13.450;2023-05-07T23:56:53;0.65;;;0.52;;
